sensor_id;sensor_type;location;lat;lon;timestamp;P1;durP1;ratioP1;P2;durP2;ratioP2
14776;SDS011;7480;43.124;25.686;2023-12-22T00:01:43;5.03;;;3.40;;
14776;SDS011;7480;43.124;25.686;2023-12-22T00:04:09;5.90;;;3.43;;
14776;SDS011;7480;43.124;25.686;2023-12-22T00:06:36;4.20;;;3.03;;
14776;SDS011;7480;43.124;25.686;2023-12-22T00:09:02;6.03;;;3.30;;
14776;SDS011;7480;43.124;25.686;2023-12-22T00:11:29;3.60;;;2.77;;
14776;SDS011;7480;43.124;25.686;2023-12-22T00:13:55;4.23;;;3.23;;
14776;SDS011;7480;43.124;25.686;2023-12-22T00:16:22;3.43;;;2.57;;
14776;SDS011;7480;43.124;25.686;2023-12-22T00:18:49;3.23;;;2.90;;
14776;SDS011;7480;43.124;25.686;2023-12-22T00:21:15;4.27;;;3.10;;
14776;SDS011;7480;43.124;25.686;2023-12-22T00:23:42;4.53;;;2.73;;
14776;SDS011;7480;43.124;25.686;2023-12-22T00:26:08;4.27;;;2.57;;
14776;SDS011;7480;43.124;25.686;2023-12-22T00:28:35;3.60;;;2.27;;
14776;SDS011;7480;43.124;25.686;2023-12-22T00:31:02;5.80;;;2.90;;
14776;SDS011;7480;43.124;25.686;2023-12-22T00:33:29;3.57;;;2.60;;
14776;SDS011;7480;43.124;25.686;2023-12-22T00:35:55;3.77;;;2.70;;
14776;SDS011;7480;43.124;25.686;2023-12-22T00:38:22;5.10;;;2.97;;
14776;SDS011;7480;43.124;25.686;2023-12-22T00:40:48;5.57;;;2.80;;
14776;SDS011;7480;43.124;25.686;2023-12-22T00:43:15;2.67;;;2.40;;
14776;SDS011;7480;43.124;25.686;2023-12-22T00:45:42;3.40;;;2.30;;
14776;SDS011;7480;43.124;25.686;2023-12-22T00:48:08;3.00;;;2.70;;
14776;SDS011;7480;43.124;25.686;2023-12-22T00:50:35;3.00;;;2.53;;
14776;SDS011;7480;43.124;25.686;2023-12-22T00:53:02;3.40;;;2.23;;
14776;SDS011;7480;43.124;25.686;2023-12-22T00:55:28;6.77;;;2.63;;
14776;SDS011;7480;43.124;25.686;2023-12-22T00:57:55;3.53;;;2.63;;
14776;SDS011;7480;43.124;25.686;2023-12-22T01:00:21;3.97;;;2.50;;
14776;SDS011;7480;43.124;25.686;2023-12-22T01:02:48;4.70;;;2.63;;
14776;SDS011;7480;43.124;25.686;2023-12-22T01:05:15;5.40;;;3.10;;
14776;SDS011;7480;43.124;25.686;2023-12-22T01:07:41;3.80;;;2.40;;
14776;SDS011;7480;43.124;25.686;2023-12-22T01:10:08;3.27;;;2.70;;
14776;SDS011;7480;43.124;25.686;2023-12-22T01:12:35;5.40;;;4.00;;
14776;SDS011;7480;43.124;25.686;2023-12-22T01:15:02;31.83;;;16.07;;
14776;SDS011;7480;43.124;25.686;2023-12-22T01:17:28;9.20;;;5.50;;
14776;SDS011;7480;43.124;25.686;2023-12-22T01:19:55;8.93;;;5.30;;
14776;SDS011;7480;43.124;25.686;2023-12-22T01:22:22;6.43;;;4.60;;
14776;SDS011;7480;43.124;25.686;2023-12-22T01:24:49;11.70;;;6.77;;
14776;SDS011;7480;43.124;25.686;2023-12-22T01:27:15;9.77;;;5.93;;
14776;SDS011;7480;43.124;25.686;2023-12-22T01:29:42;11.27;;;6.27;;
14776;SDS011;7480;43.124;25.686;2023-12-22T01:32:09;11.57;;;7.00;;
14776;SDS011;7480;43.124;25.686;2023-12-22T01:34:35;7.70;;;5.60;;
14776;SDS011;7480;43.124;25.686;2023-12-22T01:37:02;9.00;;;5.40;;
14776;SDS011;7480;43.124;25.686;2023-12-22T01:39:28;8.00;;;5.93;;
14776;SDS011;7480;43.124;25.686;2023-12-22T01:41:55;9.07;;;5.87;;
14776;SDS011;7480;43.124;25.686;2023-12-22T01:44:22;10.07;;;6.07;;
14776;SDS011;7480;43.124;25.686;2023-12-22T01:46:49;9.90;;;6.47;;
14776;SDS011;7480;43.124;25.686;2023-12-22T01:49:16;8.47;;;5.50;;
14776;SDS011;7480;43.124;25.686;2023-12-22T01:51:43;10.17;;;5.40;;
14776;SDS011;7480;43.124;25.686;2023-12-22T01:54:10;11.57;;;6.87;;
14776;SDS011;7480;43.124;25.686;2023-12-22T01:56:37;10.20;;;6.67;;
14776;SDS011;7480;43.124;25.686;2023-12-22T01:59:03;9.63;;;7.00;;
14776;SDS011;7480;43.124;25.686;2023-12-22T02:01:30;9.47;;;6.60;;
14776;SDS011;7480;43.124;25.686;2023-12-22T02:03:58;9.77;;;6.07;;
14776;SDS011;7480;43.124;25.686;2023-12-22T02:06:25;10.10;;;6.43;;
14776;SDS011;7480;43.124;25.686;2023-12-22T02:08:52;6.43;;;5.03;;
14776;SDS011;7480;43.124;25.686;2023-12-22T02:11:20;8.73;;;5.30;;
14776;SDS011;7480;43.124;25.686;2023-12-22T02:13:46;9.87;;;6.87;;
14776;SDS011;7480;43.124;25.686;2023-12-22T02:16:39;9.23;;;6.10;;
14776;SDS011;7480;43.124;25.686;2023-12-22T02:19:02;10.00;;;5.93;;
14776;SDS011;7480;43.124;25.686;2023-12-22T02:21:32;13.03;;;7.37;;
14776;SDS011;7480;43.124;25.686;2023-12-22T02:23:58;10.03;;;6.57;;
14776;SDS011;7480;43.124;25.686;2023-12-22T02:26:33;10.30;;;5.77;;
14776;SDS011;7480;43.124;25.686;2023-12-22T02:29:02;10.10;;;6.80;;
14776;SDS011;7480;43.124;25.686;2023-12-22T02:33:58;15.83;;;8.33;;
14776;SDS011;7480;43.124;25.686;2023-12-22T02:36:25;12.00;;;7.57;;
14776;SDS011;7480;43.124;25.686;2023-12-22T02:38:52;10.57;;;6.87;;
14776;SDS011;7480;43.124;25.686;2023-12-22T02:41:20;11.70;;;7.13;;
14776;SDS011;7480;43.124;25.686;2023-12-22T02:43:46;9.93;;;6.23;;
14776;SDS011;7480;43.124;25.686;2023-12-22T02:46:14;10.70;;;6.63;;
14776;SDS011;7480;43.124;25.686;2023-12-22T02:48:41;12.30;;;7.50;;
14776;SDS011;7480;43.124;25.686;2023-12-22T02:51:08;10.83;;;6.70;;
14776;SDS011;7480;43.124;25.686;2023-12-22T02:53:34;10.03;;;6.93;;
14776;SDS011;7480;43.124;25.686;2023-12-22T02:56:01;12.07;;;8.07;;
14776;SDS011;7480;43.124;25.686;2023-12-22T02:58:29;10.33;;;7.77;;
14776;SDS011;7480;43.124;25.686;2023-12-22T03:00:55;13.23;;;7.90;;
14776;SDS011;7480;43.124;25.686;2023-12-22T03:03:22;11.90;;;9.00;;
14776;SDS011;7480;43.124;25.686;2023-12-22T03:05:49;15.03;;;9.40;;
14776;SDS011;7480;43.124;25.686;2023-12-22T03:08:15;13.40;;;8.47;;
14776;SDS011;7480;43.124;25.686;2023-12-22T03:10:42;12.97;;;8.57;;
14776;SDS011;7480;43.124;25.686;2023-12-22T03:13:08;13.57;;;7.50;;
14776;SDS011;7480;43.124;25.686;2023-12-22T03:15:35;12.30;;;7.87;;
14776;SDS011;7480;43.124;25.686;2023-12-22T03:18:01;13.80;;;7.93;;
14776;SDS011;7480;43.124;25.686;2023-12-22T03:20:28;13.57;;;8.13;;
14776;SDS011;7480;43.124;25.686;2023-12-22T03:22:55;7.07;;;5.20;;
14776;SDS011;7480;43.124;25.686;2023-12-22T03:25:21;6.63;;;4.57;;
14776;SDS011;7480;43.124;25.686;2023-12-22T03:27:48;4.77;;;3.40;;
14776;SDS011;7480;43.124;25.686;2023-12-22T03:30:15;4.47;;;2.90;;
14776;SDS011;7480;43.124;25.686;2023-12-22T03:32:42;4.87;;;2.83;;
14776;SDS011;7480;43.124;25.686;2023-12-22T03:35:09;3.57;;;2.97;;
14776;SDS011;7480;43.124;25.686;2023-12-22T03:37:35;4.03;;;2.73;;
14776;SDS011;7480;43.124;25.686;2023-12-22T03:40:02;4.80;;;3.17;;
14776;SDS011;7480;43.124;25.686;2023-12-22T03:42:29;4.37;;;3.20;;
14776;SDS011;7480;43.124;25.686;2023-12-22T03:44:55;3.90;;;3.40;;
14776;SDS011;7480;43.124;25.686;2023-12-22T03:47:22;5.63;;;3.50;;
14776;SDS011;7480;43.124;25.686;2023-12-22T03:49:49;5.57;;;3.50;;
14776;SDS011;7480;43.124;25.686;2023-12-22T03:52:15;5.30;;;4.03;;
14776;SDS011;7480;43.124;25.686;2023-12-22T03:54:42;6.83;;;5.13;;
14776;SDS011;7480;43.124;25.686;2023-12-22T03:57:08;8.43;;;6.07;;
14776;SDS011;7480;43.124;25.686;2023-12-22T03:59:35;7.50;;;5.17;;
14776;SDS011;7480;43.124;25.686;2023-12-22T04:02:02;6.20;;;4.80;;
14776;SDS011;7480;43.124;25.686;2023-12-22T04:04:29;5.87;;;4.20;;
14776;SDS011;7480;43.124;25.686;2023-12-22T04:06:55;7.13;;;5.00;;
14776;SDS011;7480;43.124;25.686;2023-12-22T04:09:22;9.63;;;6.77;;
14776;SDS011;7480;43.124;25.686;2023-12-22T04:11:48;13.73;;;8.03;;
14776;SDS011;7480;43.124;25.686;2023-12-22T04:14:15;12.67;;;8.53;;
14776;SDS011;7480;43.124;25.686;2023-12-22T04:16:43;14.53;;;9.30;;
14776;SDS011;7480;43.124;25.686;2023-12-22T04:19:09;13.77;;;10.70;;
14776;SDS011;7480;43.124;25.686;2023-12-22T04:21:38;14.27;;;9.90;;
14776;SDS011;7480;43.124;25.686;2023-12-22T04:24:04;23.03;;;13.07;;
14776;SDS011;7480;43.124;25.686;2023-12-22T04:26:31;23.73;;;13.07;;
14776;SDS011;7480;43.124;25.686;2023-12-22T04:28:58;20.57;;;11.90;;
14776;SDS011;7480;43.124;25.686;2023-12-22T04:31:24;24.13;;;13.30;;
14776;SDS011;7480;43.124;25.686;2023-12-22T04:33:51;19.57;;;13.30;;
14776;SDS011;7480;43.124;25.686;2023-12-22T04:36:17;19.90;;;11.70;;
14776;SDS011;7480;43.124;25.686;2023-12-22T04:38:44;16.10;;;10.33;;
14776;SDS011;7480;43.124;25.686;2023-12-22T04:41:10;18.47;;;12.80;;
14776;SDS011;7480;43.124;25.686;2023-12-22T04:43:37;34.07;;;16.87;;
14776;SDS011;7480;43.124;25.686;2023-12-22T04:46:04;22.33;;;14.60;;
14776;SDS011;7480;43.124;25.686;2023-12-22T04:48:30;22.77;;;13.97;;
14776;SDS011;7480;43.124;25.686;2023-12-22T04:50:59;16.13;;;10.50;;
14776;SDS011;7480;43.124;25.686;2023-12-22T04:53:26;18.60;;;13.57;;
14776;SDS011;7480;43.124;25.686;2023-12-22T04:55:53;21.17;;;12.33;;
14776;SDS011;7480;43.124;25.686;2023-12-22T04:58:19;21.70;;;11.00;;
14776;SDS011;7480;43.124;25.686;2023-12-22T05:00:46;18.67;;;10.80;;
14776;SDS011;7480;43.124;25.686;2023-12-22T05:03:13;12.10;;;8.77;;
14776;SDS011;7480;43.124;25.686;2023-12-22T05:05:39;22.80;;;12.17;;
14776;SDS011;7480;43.124;25.686;2023-12-22T05:08:06;19.20;;;11.27;;
14776;SDS011;7480;43.124;25.686;2023-12-22T05:10:32;20.43;;;14.37;;
14776;SDS011;7480;43.124;25.686;2023-12-22T05:12:59;30.07;;;14.50;;
14776;SDS011;7480;43.124;25.686;2023-12-22T05:15:26;24.77;;;16.13;;
14776;SDS011;7480;43.124;25.686;2023-12-22T05:17:52;28.37;;;16.90;;
14776;SDS011;7480;43.124;25.686;2023-12-22T05:20:19;24.73;;;16.00;;
14776;SDS011;7480;43.124;25.686;2023-12-22T05:22:46;23.73;;;15.47;;
14776;SDS011;7480;43.124;25.686;2023-12-22T05:25:13;23.80;;;14.83;;
14776;SDS011;7480;43.124;25.686;2023-12-22T05:27:40;21.93;;;13.43;;
14776;SDS011;7480;43.124;25.686;2023-12-22T05:30:09;27.97;;;15.67;;
14776;SDS011;7480;43.124;25.686;2023-12-22T05:32:36;18.90;;;9.37;;
14776;SDS011;7480;43.124;25.686;2023-12-22T05:35:03;16.77;;;11.97;;
14776;SDS011;7480;43.124;25.686;2023-12-22T05:37:29;23.47;;;13.27;;
14776;SDS011;7480;43.124;25.686;2023-12-22T05:39:56;15.80;;;10.27;;
14776;SDS011;7480;43.124;25.686;2023-12-22T05:42:22;14.73;;;9.97;;
14776;SDS011;7480;43.124;25.686;2023-12-22T05:44:49;26.77;;;13.47;;
14776;SDS011;7480;43.124;25.686;2023-12-22T05:47:16;36.87;;;19.53;;
14776;SDS011;7480;43.124;25.686;2023-12-22T05:49:43;36.20;;;18.70;;
14776;SDS011;7480;43.124;25.686;2023-12-22T05:52:11;39.80;;;23.17;;
14776;SDS011;7480;43.124;25.686;2023-12-22T05:54:38;36.72;;;22.85;;
14776;SDS011;7480;43.124;25.686;2023-12-22T05:57:04;40.57;;;20.60;;
14776;SDS011;7480;43.124;25.686;2023-12-22T05:59:32;36.03;;;20.57;;
14776;SDS011;7480;43.124;25.686;2023-12-22T06:02:00;30.03;;;20.33;;
14776;SDS011;7480;43.124;25.686;2023-12-22T06:04:26;20.07;;;11.20;;
14776;SDS011;7480;43.124;25.686;2023-12-22T06:06:53;26.30;;;15.87;;
14776;SDS011;7480;43.124;25.686;2023-12-22T06:09:20;22.20;;;15.07;;
14776;SDS011;7480;43.124;25.686;2023-12-22T06:11:48;26.37;;;16.80;;
14776;SDS011;7480;43.124;25.686;2023-12-22T06:14:14;15.17;;;10.00;;
14776;SDS011;7480;43.124;25.686;2023-12-22T06:16:41;11.03;;;6.27;;
14776;SDS011;7480;43.124;25.686;2023-12-22T06:19:08;6.63;;;5.10;;
14776;SDS011;7480;43.124;25.686;2023-12-22T06:21:39;9.10;;;4.80;;
14776;SDS011;7480;43.124;25.686;2023-12-22T06:24:06;4.80;;;3.67;;
14776;SDS011;7480;43.124;25.686;2023-12-22T06:26:32;7.43;;;3.67;;
14776;SDS011;7480;43.124;25.686;2023-12-22T06:28:59;5.23;;;3.43;;
14776;SDS011;7480;43.124;25.686;2023-12-22T06:31:26;7.10;;;3.27;;
14776;SDS011;7480;43.124;25.686;2023-12-22T06:33:53;4.33;;;3.43;;
14776;SDS011;7480;43.124;25.686;2023-12-22T06:38:52;3.83;;;2.70;;
14776;SDS011;7480;43.124;25.686;2023-12-22T06:41:24;3.67;;;2.60;;
14776;SDS011;7480;43.124;25.686;2023-12-22T06:43:54;3.83;;;2.90;;
14776;SDS011;7480;43.124;25.686;2023-12-22T06:46:22;6.10;;;3.70;;
14776;SDS011;7480;43.124;25.686;2023-12-22T06:48:49;3.63;;;2.80;;
14776;SDS011;7480;43.124;25.686;2023-12-22T06:51:34;3.80;;;2.43;;
14776;SDS011;7480;43.124;25.686;2023-12-22T06:54:02;3.60;;;2.40;;
14776;SDS011;7480;43.124;25.686;2023-12-22T06:56:30;3.27;;;2.47;;
14776;SDS011;7480;43.124;25.686;2023-12-22T06:58:57;4.67;;;3.13;;
14776;SDS011;7480;43.124;25.686;2023-12-22T07:03:54;4.93;;;3.78;;
14776;SDS011;7480;43.124;25.686;2023-12-22T07:06:21;6.83;;;4.70;;
14776;SDS011;7480;43.124;25.686;2023-12-22T07:11:44;9.23;;;6.70;;
14776;SDS011;7480;43.124;25.686;2023-12-22T07:14:11;8.13;;;4.87;;
14776;SDS011;7480;43.124;25.686;2023-12-22T07:16:38;4.93;;;4.00;;
14776;SDS011;7480;43.124;25.686;2023-12-22T07:19:04;5.63;;;4.30;;
14776;SDS011;7480;43.124;25.686;2023-12-22T07:21:31;8.57;;;5.90;;
14776;SDS011;7480;43.124;25.686;2023-12-22T07:23:58;6.07;;;4.17;;
14776;SDS011;7480;43.124;25.686;2023-12-22T07:26:26;5.77;;;3.87;;
14776;SDS011;7480;43.124;25.686;2023-12-22T07:28:55;8.20;;;4.00;;
14776;SDS011;7480;43.124;25.686;2023-12-22T07:31:22;3.80;;;3.33;;
14776;SDS011;7480;43.124;25.686;2023-12-22T07:33:49;8.70;;;4.43;;
14776;SDS011;7480;43.124;25.686;2023-12-22T07:36:15;7.27;;;4.80;;
14776;SDS011;7480;43.124;25.686;2023-12-22T07:38:42;6.67;;;4.30;;
14776;SDS011;7480;43.124;25.686;2023-12-22T07:41:09;7.90;;;5.47;;
14776;SDS011;7480;43.124;25.686;2023-12-22T07:43:37;6.93;;;5.53;;
14776;SDS011;7480;43.124;25.686;2023-12-22T07:46:04;7.07;;;4.47;;
14776;SDS011;7480;43.124;25.686;2023-12-22T07:48:31;11.70;;;5.33;;
14776;SDS011;7480;43.124;25.686;2023-12-22T07:50:58;8.17;;;6.20;;
14776;SDS011;7480;43.124;25.686;2023-12-22T07:53:25;10.43;;;7.60;;
14776;SDS011;7480;43.124;25.686;2023-12-22T07:55:51;6.63;;;5.13;;
14776;SDS011;7480;43.124;25.686;2023-12-22T07:58:18;6.83;;;5.17;;
14776;SDS011;7480;43.124;25.686;2023-12-22T08:00:45;7.93;;;5.10;;
14776;SDS011;7480;43.124;25.686;2023-12-22T08:03:12;7.17;;;4.97;;
14776;SDS011;7480;43.124;25.686;2023-12-22T08:05:39;7.70;;;4.67;;
14776;SDS011;7480;43.124;25.686;2023-12-22T08:08:06;7.03;;;4.83;;
14776;SDS011;7480;43.124;25.686;2023-12-22T08:10:33;7.60;;;5.20;;
14776;SDS011;7480;43.124;25.686;2023-12-22T08:12:59;5.43;;;4.07;;
14776;SDS011;7480;43.124;25.686;2023-12-22T08:15:26;7.40;;;4.53;;
14776;SDS011;7480;43.124;25.686;2023-12-22T08:18:02;7.50;;;5.00;;
14776;SDS011;7480;43.124;25.686;2023-12-22T08:20:29;6.23;;;4.83;;
14776;SDS011;7480;43.124;25.686;2023-12-22T08:23:02;6.53;;;4.73;;
14776;SDS011;7480;43.124;25.686;2023-12-22T08:25:35;7.70;;;4.80;;
14776;SDS011;7480;43.124;25.686;2023-12-22T08:28:02;5.13;;;3.87;;
14776;SDS011;7480;43.124;25.686;2023-12-22T08:30:29;4.90;;;4.07;;
14776;SDS011;7480;43.124;25.686;2023-12-22T08:32:55;4.50;;;3.30;;
14776;SDS011;7480;43.124;25.686;2023-12-22T08:35:22;3.97;;;3.20;;
14776;SDS011;7480;43.124;25.686;2023-12-22T08:37:48;3.93;;;3.07;;
14776;SDS011;7480;43.124;25.686;2023-12-22T08:40:15;3.40;;;2.97;;
14776;SDS011;7480;43.124;25.686;2023-12-22T08:42:42;13.47;;;3.77;;
14776;SDS011;7480;43.124;25.686;2023-12-22T08:45:09;4.03;;;2.83;;
14776;SDS011;7480;43.124;25.686;2023-12-22T08:47:35;3.50;;;2.97;;
14776;SDS011;7480;43.124;25.686;2023-12-22T08:50:02;4.23;;;3.20;;
14776;SDS011;7480;43.124;25.686;2023-12-22T08:52:31;5.93;;;3.30;;
14776;SDS011;7480;43.124;25.686;2023-12-22T08:54:57;4.37;;;3.23;;
14776;SDS011;7480;43.124;25.686;2023-12-22T08:57:24;4.20;;;3.17;;
14776;SDS011;7480;43.124;25.686;2023-12-22T08:59:51;5.63;;;3.00;;
14776;SDS011;7480;43.124;25.686;2023-12-22T09:02:17;3.80;;;2.60;;
14776;SDS011;7480;43.124;25.686;2023-12-22T09:04:44;4.63;;;2.60;;
14776;SDS011;7480;43.124;25.686;2023-12-22T09:07:11;6.47;;;2.47;;
14776;SDS011;7480;43.124;25.686;2023-12-22T09:09:37;3.13;;;2.57;;
14776;SDS011;7480;43.124;25.686;2023-12-22T09:12:04;3.27;;;2.60;;
14776;SDS011;7480;43.124;25.686;2023-12-22T09:14:31;4.70;;;2.40;;
14776;SDS011;7480;43.124;25.686;2023-12-22T09:16:57;3.90;;;3.10;;
14776;SDS011;7480;43.124;25.686;2023-12-22T09:19:24;3.13;;;2.50;;
14776;SDS011;7480;43.124;25.686;2023-12-22T09:21:51;4.37;;;2.63;;
14776;SDS011;7480;43.124;25.686;2023-12-22T09:24:17;5.30;;;2.70;;
14776;SDS011;7480;43.124;25.686;2023-12-22T09:26:44;3.93;;;2.80;;
14776;SDS011;7480;43.124;25.686;2023-12-22T09:29:11;4.03;;;2.60;;
14776;SDS011;7480;43.124;25.686;2023-12-22T09:31:37;3.87;;;2.70;;
14776;SDS011;7480;43.124;25.686;2023-12-22T09:34:04;2.27;;;1.97;;
14776;SDS011;7480;43.124;25.686;2023-12-22T09:36:31;3.33;;;2.50;;
14776;SDS011;7480;43.124;25.686;2023-12-22T09:38:58;3.80;;;2.53;;
14776;SDS011;7480;43.124;25.686;2023-12-22T09:41:25;2.20;;;1.83;;
14776;SDS011;7480;43.124;25.686;2023-12-22T09:43:51;2.60;;;2.13;;
14776;SDS011;7480;43.124;25.686;2023-12-22T09:46:20;3.90;;;3.00;;
14776;SDS011;7480;43.124;25.686;2023-12-22T09:48:49;2.30;;;2.10;;
14776;SDS011;7480;43.124;25.686;2023-12-22T09:51:15;2.83;;;2.17;;
14776;SDS011;7480;43.124;25.686;2023-12-22T09:53:42;2.23;;;1.90;;
14776;SDS011;7480;43.124;25.686;2023-12-22T09:56:10;4.50;;;1.90;;
14776;SDS011;7480;43.124;25.686;2023-12-22T09:58:37;2.43;;;2.03;;
14776;SDS011;7480;43.124;25.686;2023-12-22T10:01:04;3.37;;;1.90;;
14776;SDS011;7480;43.124;25.686;2023-12-22T10:03:33;1.97;;;1.60;;
14776;SDS011;7480;43.124;25.686;2023-12-22T10:05:59;2.57;;;2.00;;
14776;SDS011;7480;43.124;25.686;2023-12-22T10:08:27;3.93;;;1.93;;
14776;SDS011;7480;43.124;25.686;2023-12-22T10:10:54;3.93;;;3.00;;
14776;SDS011;7480;43.124;25.686;2023-12-22T10:13:21;8.23;;;4.20;;
14776;SDS011;7480;43.124;25.686;2023-12-22T10:15:48;5.50;;;4.93;;
14776;SDS011;7480;43.124;25.686;2023-12-22T10:18:15;6.30;;;4.70;;
14776;SDS011;7480;43.124;25.686;2023-12-22T10:20:41;10.80;;;7.07;;
14776;SDS011;7480;43.124;25.686;2023-12-22T10:23:08;12.30;;;7.87;;
14776;SDS011;7480;43.124;25.686;2023-12-22T10:25:35;11.37;;;8.03;;
14776;SDS011;7480;43.124;25.686;2023-12-22T10:28:02;12.93;;;10.53;;
14776;SDS011;7480;43.124;25.686;2023-12-22T10:30:29;13.07;;;9.90;;
14776;SDS011;7480;43.124;25.686;2023-12-22T10:32:56;11.23;;;7.80;;
14776;SDS011;7480;43.124;25.686;2023-12-22T10:35:23;7.13;;;5.00;;
14776;SDS011;7480;43.124;25.686;2023-12-22T10:37:50;8.90;;;3.73;;
14776;SDS011;7480;43.124;25.686;2023-12-22T10:40:20;11.10;;;6.93;;
14776;SDS011;7480;43.124;25.686;2023-12-22T10:42:48;3.30;;;2.50;;
14776;SDS011;7480;43.124;25.686;2023-12-22T10:45:14;5.77;;;3.13;;
14776;SDS011;7480;43.124;25.686;2023-12-22T10:47:43;3.10;;;1.53;;
14776;SDS011;7480;43.124;25.686;2023-12-22T10:50:13;2.80;;;2.00;;
14776;SDS011;7480;43.124;25.686;2023-12-22T10:52:41;1.70;;;1.60;;
14776;SDS011;7480;43.124;25.686;2023-12-22T10:55:08;2.97;;;1.70;;
14776;SDS011;7480;43.124;25.686;2023-12-22T10:57:34;4.33;;;2.60;;
14776;SDS011;7480;43.124;25.686;2023-12-22T11:00:05;2.90;;;2.00;;
14776;SDS011;7480;43.124;25.686;2023-12-22T11:02:34;2.83;;;2.07;;
14776;SDS011;7480;43.124;25.686;2023-12-22T11:05:02;1.60;;;1.50;;
14776;SDS011;7480;43.124;25.686;2023-12-22T11:07:35;2.17;;;1.30;;
14776;SDS011;7480;43.124;25.686;2023-12-22T11:10:03;3.47;;;1.80;;
14776;SDS011;7480;43.124;25.686;2023-12-22T11:12:31;2.67;;;2.20;;
14776;SDS011;7480;43.124;25.686;2023-12-22T11:14:59;2.00;;;1.63;;
14776;SDS011;7480;43.124;25.686;2023-12-22T11:17:26;4.07;;;3.40;;
14776;SDS011;7480;43.124;25.686;2023-12-22T11:19:53;5.50;;;2.87;;
14776;SDS011;7480;43.124;25.686;2023-12-22T11:22:20;4.47;;;2.70;;
14776;SDS011;7480;43.124;25.686;2023-12-22T11:24:48;1.73;;;1.20;;
14776;SDS011;7480;43.124;25.686;2023-12-22T11:27:18;1.47;;;1.30;;
14776;SDS011;7480;43.124;25.686;2023-12-22T11:29:47;3.80;;;1.30;;
14776;SDS011;7480;43.124;25.686;2023-12-22T11:32:15;3.73;;;1.60;;
14776;SDS011;7480;43.124;25.686;2023-12-22T11:34:42;5.00;;;1.50;;
14776;SDS011;7480;43.124;25.686;2023-12-22T11:37:14;2.83;;;1.50;;
14776;SDS011;7480;43.124;25.686;2023-12-22T11:39:43;1.37;;;1.27;;
14776;SDS011;7480;43.124;25.686;2023-12-22T11:42:16;1.20;;;1.10;;
14776;SDS011;7480;43.124;25.686;2023-12-22T11:44:43;1.73;;;1.10;;
14776;SDS011;7480;43.124;25.686;2023-12-22T11:47:10;2.93;;;1.00;;
14776;SDS011;7480;43.124;25.686;2023-12-22T11:49:39;0.90;;;0.90;;
14776;SDS011;7480;43.124;25.686;2023-12-22T11:52:13;1.23;;;1.13;;
14776;SDS011;7480;43.124;25.686;2023-12-22T11:54:47;1.63;;;1.27;;
14776;SDS011;7480;43.124;25.686;2023-12-22T11:59:58;3.57;;;1.43;;
14776;SDS011;7480;43.124;25.686;2023-12-22T12:02:25;4.77;;;2.07;;
14776;SDS011;7480;43.124;25.686;2023-12-22T12:04:53;9.67;;;4.50;;
14776;SDS011;7480;43.124;25.686;2023-12-22T12:07:36;7.00;;;3.37;;
14776;SDS011;7480;43.124;25.686;2023-12-22T12:10:03;5.73;;;3.00;;
14776;SDS011;7480;43.124;25.686;2023-12-22T12:12:30;4.47;;;1.97;;
14776;SDS011;7480;43.124;25.686;2023-12-22T12:14:57;4.63;;;1.53;;
14776;SDS011;7480;43.124;25.686;2023-12-22T12:17:24;3.37;;;1.67;;
14776;SDS011;7480;43.124;25.686;2023-12-22T12:19:51;2.97;;;1.73;;
14776;SDS011;7480;43.124;25.686;2023-12-22T12:22:18;1.10;;;1.00;;
14776;SDS011;7480;43.124;25.686;2023-12-22T12:24:45;1.97;;;1.47;;
14776;SDS011;7480;43.124;25.686;2023-12-22T12:27:11;1.67;;;1.37;;
14776;SDS011;7480;43.124;25.686;2023-12-22T12:29:43;3.50;;;1.53;;
14776;SDS011;7480;43.124;25.686;2023-12-22T12:32:10;2.47;;;1.70;;
14776;SDS011;7480;43.124;25.686;2023-12-22T12:34:43;5.40;;;3.33;;
14776;SDS011;7480;43.124;25.686;2023-12-22T12:37:10;2.30;;;2.07;;
14776;SDS011;7480;43.124;25.686;2023-12-22T12:39:37;1.77;;;1.10;;
14776;SDS011;7480;43.124;25.686;2023-12-22T12:42:06;2.77;;;1.60;;
14776;SDS011;7480;43.124;25.686;2023-12-22T12:44:34;1.40;;;1.20;;
14776;SDS011;7480;43.124;25.686;2023-12-22T12:47:10;2.30;;;1.50;;
14776;SDS011;7480;43.124;25.686;2023-12-22T12:49:37;2.87;;;1.00;;
14776;SDS011;7480;43.124;25.686;2023-12-22T12:52:04;1.83;;;1.20;;
14776;SDS011;7480;43.124;25.686;2023-12-22T12:54:31;1.20;;;1.10;;
14776;SDS011;7480;43.124;25.686;2023-12-22T12:56:58;2.90;;;2.70;;
14776;SDS011;7480;43.124;25.686;2023-12-22T12:59:24;3.17;;;2.37;;
14776;SDS011;7480;43.124;25.686;2023-12-22T13:01:51;1.80;;;1.20;;
14776;SDS011;7480;43.124;25.686;2023-12-22T13:04:19;1.90;;;1.13;;
14776;SDS011;7480;43.124;25.686;2023-12-22T13:06:46;1.60;;;1.03;;
14776;SDS011;7480;43.124;25.686;2023-12-22T13:09:13;2.20;;;1.63;;
14776;SDS011;7480;43.124;25.686;2023-12-22T13:11:42;1.27;;;1.00;;
14776;SDS011;7480;43.124;25.686;2023-12-22T13:14:10;4.53;;;3.33;;
14776;SDS011;7480;43.124;25.686;2023-12-22T13:16:36;4.53;;;2.10;;
14776;SDS011;7480;43.124;25.686;2023-12-22T13:19:04;4.20;;;2.37;;
14776;SDS011;7480;43.124;25.686;2023-12-22T13:21:31;1.73;;;1.63;;
14776;SDS011;7480;43.124;25.686;2023-12-22T13:26:58;4.93;;;2.07;;
14776;SDS011;7480;43.124;25.686;2023-12-22T13:29:26;3.70;;;1.87;;
14776;SDS011;7480;43.124;25.686;2023-12-22T13:31:52;4.30;;;1.90;;
14776;SDS011;7480;43.124;25.686;2023-12-22T13:34:20;4.93;;;2.50;;
14776;SDS011;7480;43.124;25.686;2023-12-22T13:36:47;1.47;;;1.10;;
14776;SDS011;7480;43.124;25.686;2023-12-22T13:39:14;1.60;;;1.00;;
14776;SDS011;7480;43.124;25.686;2023-12-22T13:41:41;4.67;;;1.90;;
14776;SDS011;7480;43.124;25.686;2023-12-22T13:44:12;2.13;;;1.73;;
14776;SDS011;7480;43.124;25.686;2023-12-22T13:46:39;2.70;;;1.57;;
14776;SDS011;7480;43.124;25.686;2023-12-22T13:49:08;2.70;;;2.17;;
14776;SDS011;7480;43.124;25.686;2023-12-22T13:51:53;1.97;;;1.30;;
14776;SDS011;7480;43.124;25.686;2023-12-22T13:54:19;2.33;;;1.80;;
14776;SDS011;7480;43.124;25.686;2023-12-22T13:56:46;4.90;;;2.00;;
14776;SDS011;7480;43.124;25.686;2023-12-22T13:59:12;2.20;;;1.30;;
14776;SDS011;7480;43.124;25.686;2023-12-22T14:01:39;5.57;;;2.57;;
14776;SDS011;7480;43.124;25.686;2023-12-22T14:04:07;4.37;;;3.10;;
14776;SDS011;7480;43.124;25.686;2023-12-22T14:06:36;3.43;;;2.73;;
14776;SDS011;7480;43.124;25.686;2023-12-22T14:09:04;4.23;;;2.97;;
14776;SDS011;7480;43.124;25.686;2023-12-22T14:11:30;2.17;;;1.80;;
14776;SDS011;7480;43.124;25.686;2023-12-22T14:13:58;4.63;;;2.80;;
14776;SDS011;7480;43.124;25.686;2023-12-22T14:16:25;6.73;;;4.10;;
14776;SDS011;7480;43.124;25.686;2023-12-22T14:18:52;6.83;;;3.10;;
14776;SDS011;7480;43.124;25.686;2023-12-22T14:21:19;3.80;;;2.63;;
14776;SDS011;7480;43.124;25.686;2023-12-22T14:23:45;7.87;;;3.97;;
14776;SDS011;7480;43.124;25.686;2023-12-22T14:26:12;3.50;;;2.43;;
14776;SDS011;7480;43.124;25.686;2023-12-22T14:28:38;12.47;;;7.97;;
14776;SDS011;7480;43.124;25.686;2023-12-22T14:31:05;8.33;;;4.33;;
14776;SDS011;7480;43.124;25.686;2023-12-22T14:33:32;12.47;;;6.60;;
14776;SDS011;7480;43.124;25.686;2023-12-22T14:35:59;6.60;;;4.90;;
14776;SDS011;7480;43.124;25.686;2023-12-22T14:38:26;13.97;;;8.03;;
14776;SDS011;7480;43.124;25.686;2023-12-22T14:40:52;50.87;;;20.60;;
14776;SDS011;7480;43.124;25.686;2023-12-22T14:43:19;21.10;;;10.20;;
14776;SDS011;7480;43.124;25.686;2023-12-22T14:45:45;16.33;;;10.07;;
14776;SDS011;7480;43.124;25.686;2023-12-22T14:48:12;11.63;;;8.50;;
14776;SDS011;7480;43.124;25.686;2023-12-22T14:50:39;8.73;;;5.80;;
14776;SDS011;7480;43.124;25.686;2023-12-22T14:53:05;9.70;;;6.23;;
14776;SDS011;7480;43.124;25.686;2023-12-22T14:55:36;4.57;;;4.03;;
14776;SDS011;7480;43.124;25.686;2023-12-22T14:58:03;6.43;;;4.60;;
14776;SDS011;7480;43.124;25.686;2023-12-22T15:00:30;6.07;;;4.00;;